createdAt,value
2018-03-11T00:00:21.246Z,48.57
2018-03-11T00:02:47.033Z,48.55
2018-03-11T00:05:12.819Z,48.65
2018-03-11T00:07:38.597Z,49.04
2018-03-11T00:10:04.382Z,48.92
2018-03-11T00:12:30.174Z,48.87
2018-03-11T00:14:55.954Z,48.75
2018-03-11T00:17:21.736Z,48.60
2018-03-11T00:19:47.514Z,49.02
2018-03-11T00:22:13.301Z,48.98
2018-03-11T00:24:39.129Z,48.80
2018-03-11T00:27:04.941Z,48.66
2018-03-11T00:29:30.726Z,48.56
2018-03-11T00:31:56.538Z,48.53
2018-03-11T00:34:22.318Z,48.55
2018-03-11T00:36:48.146Z,48.71
2018-03-11T00:39:13.930Z,48.55
2018-03-11T00:41:40.768Z,48.75
2018-03-11T00:44:06.545Z,48.81
2018-03-11T00:46:33.306Z,49.05
2018-03-11T00:48:59.086Z,48.79
2018-03-11T00:51:24.903Z,48.67
2018-03-11T00:53:50.682Z,48.58
2018-03-11T00:56:16.505Z,48.30
2018-03-11T00:58:42.286Z,48.45
2018-03-11T01:01:08.102Z,48.26
2018-03-11T01:03:33.889Z,48.28
2018-03-11T01:06:00.617Z,48.34
2018-03-11T01:08:26.400Z,48.14
2018-03-11T01:10:52.177Z,48.17
2018-03-11T01:13:17.997Z,48.26
2018-03-11T01:15:43.781Z,48.50
2018-03-11T01:18:09.593Z,48.61
2018-03-11T01:20:35.405Z,48.55
2018-03-11T01:23:01.216Z,48.70
2018-03-11T01:25:26.998Z,48.74
2018-03-11T01:27:52.782Z,49.02
2018-03-11T01:30:18.563Z,48.61
2018-03-11T01:32:44.346Z,48.88
2018-03-11T01:35:10.130Z,48.80
2018-03-11T01:37:36.738Z,48.76
2018-03-11T01:40:02.535Z,48.75
2018-03-11T01:42:28.318Z,48.66
2018-03-11T01:44:54.133Z,48.73
2018-03-11T01:47:19.914Z,48.73
2018-03-11T01:49:45.725Z,48.35
2018-03-11T01:52:11.510Z,48.45
2018-03-11T01:54:37.291Z,48.36
2018-03-11T01:57:03.070Z,48.63
2018-03-11T01:59:28.846Z,48.77
2018-03-11T02:01:55.746Z,48.88
2018-03-11T02:04:21.526Z,49.15
2018-03-11T02:06:47.311Z,48.79
2018-03-11T02:09:13.110Z,48.68
2018-03-11T02:11:38.882Z,48.75
2018-03-11T02:14:04.655Z,48.99
2018-03-11T02:16:30.429Z,48.71
2018-03-11T02:18:57.129Z,48.52
2018-03-11T02:21:22.939Z,48.76
2018-03-11T02:23:48.722Z,48.10
2018-03-11T02:26:14.498Z,48.30
2018-03-11T02:28:40.310Z,48.35
2018-03-11T02:31:06.098Z,48.60
2018-03-11T02:33:31.918Z,48.72
2018-03-11T02:35:57.697Z,49.05
2018-03-11T02:38:23.473Z,48.77
2018-03-11T02:40:49.249Z,48.71
2018-03-11T02:43:15.038Z,48.59
2018-03-11T02:45:40.818Z,48.69
2018-03-11T02:48:06.664Z,48.59
2018-03-11T02:50:32.449Z,48.71
2018-03-11T02:52:58.235Z,48.64
2018-03-11T02:55:25.053Z,48.85
2018-03-11T02:57:50.833Z,49.07
2018-03-11T03:00:16.608Z,48.70
2018-03-11T03:02:42.394Z,48.33
2018-03-11T03:05:09.133Z,48.83
2018-03-11T03:07:34.910Z,48.66
2018-03-11T03:10:00.686Z,48.37
2018-03-11T03:12:26.466Z,48.22
2018-03-11T03:14:52.246Z,48.58
2018-03-11T03:17:18.037Z,48.65
2018-03-11T03:19:43.817Z,48.36
2018-03-11T03:22:09.601Z,48.03
2018-03-11T03:24:35.386Z,48.21
2018-03-11T03:27:01.161Z,48.09
2018-03-11T03:29:26.946Z,47.91
2018-03-11T03:31:52.722Z,48.02
2018-03-11T03:34:18.496Z,47.94
2018-03-11T03:36:45.159Z,47.95
2018-03-11T03:39:11.869Z,47.96
2018-03-11T03:41:38.708Z,48.21
2018-03-11T03:44:05.511Z,47.97
2018-03-11T03:46:31.329Z,47.98
2018-03-11T03:48:58.126Z,48.11
2018-03-11T03:51:23.935Z,48.19
2018-03-11T03:53:50.590Z,48.04
2018-03-11T03:56:17.366Z,48.16
2018-03-11T03:58:44.073Z,48.18
2018-03-11T04:01:09.881Z,48.37
2018-03-11T04:03:35.705Z,48.18
2018-03-11T04:06:01.518Z,48.22
2018-03-11T04:08:28.286Z,48.31
2018-03-11T04:10:54.098Z,48.42
2018-03-11T04:13:20.843Z,48.19
2018-03-11T04:15:47.678Z,48.36
2018-03-11T04:18:13.487Z,48.01
2018-03-11T04:20:40.317Z,48.21
2018-03-11T04:23:07.110Z,48.05
2018-03-11T04:25:32.881Z,48.21
2018-03-11T04:27:59.453Z,48.05
2018-03-11T04:30:26.190Z,48.31
2018-03-11T04:32:52.969Z,47.87
2018-03-11T04:35:19.686Z,48.48
2018-03-11T04:37:46.407Z,48.16
2018-03-11T04:40:13.102Z,48.48
2018-03-11T04:42:39.904Z,48.25
2018-03-11T04:45:06.673Z,48.31
2018-03-11T04:47:32.457Z,47.96
2018-03-11T04:49:58.265Z,48.31
2018-03-11T04:52:24.081Z,48.37
2018-03-11T04:54:50.665Z,47.87
2018-03-11T04:57:17.361Z,48.09
2018-03-11T04:59:43.173Z,48.21
2018-03-11T05:02:09.882Z,47.91
2018-03-11T05:04:35.689Z,47.99
2018-03-11T05:07:01.510Z,47.71
2018-03-11T05:09:27.290Z,48.08
2018-03-11T05:11:53.949Z,47.82
2018-03-11T05:14:19.727Z,48.03
2018-03-11T05:16:45.547Z,48.12
2018-03-11T05:19:11.987Z,47.78
2018-03-11T05:21:37.804Z,47.60
2018-03-11T05:24:03.626Z,47.36
2018-03-11T05:26:29.416Z,47.18
2018-03-11T05:28:55.228Z,47.63
2018-03-11T05:31:21.044Z,47.62
2018-03-11T05:33:47.618Z,47.57
2018-03-11T05:36:14.349Z,47.82
2018-03-11T05:38:40.130Z,47.73
2018-03-11T05:41:05.905Z,48.01
2018-03-11T05:43:32.685Z,47.61
2018-03-11T05:45:59.469Z,47.83
2018-03-11T05:48:25.246Z,47.94
2018-03-11T05:50:51.948Z,48.11
2018-03-11T05:53:18.747Z,47.86
2018-03-11T05:55:45.570Z,47.82
2018-03-11T05:58:11.337Z,47.78
2018-03-11T06:00:37.120Z,47.87
2018-03-11T06:03:02.918Z,47.90
2018-03-11T06:05:28.715Z,48.17
2018-03-11T06:07:55.393Z,47.65
2018-03-11T06:10:22.137Z,47.97
2018-03-11T06:12:47.913Z,48.15
2018-03-11T06:15:13.687Z,47.90
2018-03-11T06:17:39.507Z,48.13
2018-03-11T06:20:05.285Z,47.90
2018-03-11T06:22:32.078Z,47.95
2018-03-11T06:24:57.852Z,48.05
2018-03-11T06:27:24.653Z,47.77
2018-03-11T06:29:51.485Z,47.67
2018-03-11T06:32:17.258Z,47.80
2018-03-11T06:34:43.029Z,47.57
2018-03-11T06:37:08.812Z,47.40
2018-03-11T06:39:34.593Z,47.46
2018-03-11T06:42:00.373Z,47.10
2018-03-11T06:44:26.144Z,47.83
2018-03-11T06:46:51.921Z,47.83
2018-03-11T06:49:21.952Z,47.57
2018-03-11T06:51:47.866Z,47.83
2018-03-11T06:54:13.648Z,47.88
2018-03-11T06:56:39.425Z,48.11
2018-03-11T06:59:05.238Z,48.54
2018-03-11T07:01:31.009Z,48.00
2018-03-11T07:03:57.617Z,47.94
2018-03-11T07:06:23.399Z,48.02
2018-03-11T07:08:49.213Z,47.88
2018-03-11T07:11:15.007Z,47.79
2018-03-11T07:13:40.788Z,47.96
2018-03-11T07:16:06.613Z,48.14
2018-03-11T07:18:32.393Z,48.00
2018-03-11T07:20:58.173Z,48.15
2018-03-11T07:23:23.952Z,49.49
2018-03-11T07:25:49.825Z,48.71
2018-03-11T07:28:15.599Z,48.36
2018-03-11T07:30:41.379Z,48.31
2018-03-11T07:33:07.158Z,48.73
2018-03-11T07:35:32.934Z,48.47
2018-03-11T07:37:59.513Z,48.71
2018-03-11T07:40:25.281Z,48.67
2018-03-11T07:42:51.102Z,48.32
2018-03-11T07:45:17.849Z,48.41
2018-03-11T07:47:43.635Z,48.76
2018-03-11T07:50:09.410Z,48.70
2018-03-11T07:52:35.227Z,48.64
2018-03-11T07:55:02.030Z,48.88
2018-03-11T07:57:27.870Z,48.75
2018-03-11T07:59:54.502Z,48.49
2018-03-11T08:02:20.319Z,49.02
2018-03-11T08:04:46.102Z,48.53
2018-03-11T08:07:11.922Z,48.72
2018-03-11T08:09:38.636Z,48.21
2018-03-11T08:12:05.450Z,48.30
2018-03-11T08:14:32.243Z,48.13
2018-03-11T08:16:59.025Z,48.18
2018-03-11T08:19:25.802Z,48.15
2018-03-11T08:21:52.526Z,48.06
2018-03-11T08:24:18.338Z,48.32
2018-03-11T08:26:52.191Z,48.42
2018-03-11T08:29:18.014Z,48.64
2018-03-11T08:31:44.810Z,48.57
2018-03-11T08:34:11.571Z,49.11
2018-03-11T08:36:37.351Z,48.62
2018-03-11T08:39:04.110Z,48.49
2018-03-11T08:41:30.966Z,48.64
2018-03-11T08:43:57.685Z,48.72
2018-03-11T08:46:23.481Z,48.78
2018-03-11T08:48:49.258Z,48.76
2018-03-11T08:51:16.121Z,48.87
2018-03-11T08:53:42.714Z,48.89
2018-03-11T08:56:08.494Z,48.83
2018-03-11T08:58:35.201Z,49.09
2018-03-11T09:01:00.976Z,49.07
2018-03-11T09:03:26.758Z,48.93
2018-03-11T09:05:53.598Z,49.07
2018-03-11T09:08:20.338Z,49.25
2018-03-11T09:10:47.050Z,49.08
2018-03-11T09:13:12.898Z,49.19
2018-03-11T09:15:39.490Z,49.22
2018-03-11T09:18:05.337Z,49.52
2018-03-11T09:20:31.151Z,49.23
2018-03-11T09:22:56.970Z,49.13
2018-03-11T09:25:22.785Z,49.24
2018-03-11T09:27:48.610Z,49.11
2018-03-11T09:30:14.395Z,49.16
2018-03-11T09:32:40.176Z,49.07
2018-03-11T09:35:05.958Z,49.27
2018-03-11T09:37:32.738Z,49.08
2018-03-11T09:39:59.524Z,49.16
2018-03-11T09:42:25.295Z,49.24
2018-03-11T09:44:51.077Z,49.44
2018-03-11T09:47:17.856Z,49.34
2018-03-11T09:49:43.634Z,49.40
2018-03-11T09:52:09.423Z,49.55
2018-03-11T09:54:36.137Z,49.75
2018-03-11T09:57:01.926Z,49.42
2018-03-11T09:59:28.778Z,49.38
2018-03-11T10:01:55.485Z,49.38
2018-03-11T10:04:21.704Z,49.40
2018-03-11T10:06:48.481Z,49.55
2018-03-11T10:09:15.271Z,49.65
2018-03-11T10:11:42.045Z,49.58
2018-03-11T10:14:07.830Z,49.50
2018-03-11T10:16:34.546Z,49.45
2018-03-11T10:19:01.382Z,49.38
2018-03-11T10:21:28.254Z,49.32
2018-03-11T10:23:54.037Z,48.71
2018-03-11T10:26:20.838Z,48.60
2018-03-11T10:28:47.641Z,48.11
2018-03-11T10:31:14.443Z,48.40
2018-03-11T10:33:40.222Z,48.18
2018-03-11T10:36:06.005Z,48.66
2018-03-11T10:38:32.839Z,48.67
2018-03-11T10:40:59.709Z,48.87
2018-03-11T10:43:26.462Z,48.78
2018-03-11T10:45:53.188Z,48.99
2018-03-11T10:48:18.995Z,48.89
2018-03-11T10:50:45.667Z,48.92
2018-03-11T10:53:11.493Z,49.18
2018-03-11T10:55:37.374Z,49.19
2018-03-11T10:58:03.142Z,49.19
2018-03-11T11:00:28.958Z,49.24
2018-03-11T11:03:00.978Z,49.19
2018-03-11T11:05:27.666Z,49.32
2018-03-11T11:07:53.494Z,49.33
2018-03-11T11:10:19.290Z,49.15
2018-03-11T11:12:45.111Z,49.45
2018-03-11T11:15:10.906Z,49.40
2018-03-11T11:17:36.697Z,49.39
2018-03-11T11:20:02.540Z,49.58
2018-03-11T11:22:28.391Z,49.60
2018-03-11T11:24:54.186Z,49.59
2018-03-11T11:27:20.933Z,49.69
2018-03-11T11:29:46.725Z,49.84
2018-03-11T11:32:12.519Z,49.62
2018-03-11T11:34:38.301Z,49.08
2018-03-11T11:37:04.094Z,49.10
2018-03-11T11:39:29.884Z,49.24
2018-03-11T11:41:56.651Z,49.49
2018-03-11T11:44:22.434Z,49.53
2018-03-11T11:46:48.229Z,49.43
2018-03-11T11:49:14.025Z,49.36
2018-03-11T11:51:39.817Z,49.32
2018-03-11T11:54:05.604Z,49.31
2018-03-11T11:56:31.394Z,49.14
2018-03-11T11:58:57.190Z,49.29
2018-03-11T12:01:22.974Z,49.11
2018-03-11T12:03:48.759Z,49.45
2018-03-11T12:06:15.402Z,49.47
2018-03-11T12:08:41.209Z,49.67
2018-03-11T12:11:07.004Z,49.81
2018-03-11T12:13:32.822Z,49.83
2018-03-11T12:15:59.410Z,49.82
2018-03-11T12:18:25.229Z,50.10
2018-03-11T12:20:51.666Z,50.04
2018-03-11T12:23:17.474Z,50.04
2018-03-11T12:25:44.114Z,49.95
2018-03-11T12:28:09.930Z,49.91
2018-03-11T12:30:36.584Z,49.92
2018-03-11T12:33:02.403Z,50.11
2018-03-11T12:35:29.095Z,50.03
2018-03-11T12:37:54.913Z,50.20
2018-03-11T12:40:20.690Z,50.12
2018-03-11T12:42:47.398Z,50.13
2018-03-11T12:45:13.207Z,50.22
2018-03-11T12:47:38.980Z,50.17
2018-03-11T12:50:05.631Z,50.19
2018-03-11T12:52:31.436Z,50.05
2018-03-11T12:54:58.135Z,49.88
2018-03-11T12:57:24.923Z,50.06
2018-03-11T12:59:50.737Z,50.11
2018-03-11T13:02:16.552Z,50.08
2018-03-11T13:04:42.330Z,50.06
2018-03-11T13:07:09.059Z,50.17
2018-03-11T13:09:34.836Z,50.17
2018-03-11T13:12:01.600Z,50.12
2018-03-11T13:14:27.378Z,50.36
2018-03-11T13:16:54.089Z,50.31
2018-03-11T13:19:19.874Z,50.27
2018-03-11T13:21:45.717Z,50.19
2018-03-11T13:24:12.418Z,50.10
2018-03-11T13:26:38.200Z,50.11
2018-03-11T13:29:03.971Z,50.29
2018-03-11T13:31:29.755Z,50.29
2018-03-11T13:34:01.683Z,50.35
2018-03-11T13:36:27.465Z,50.61
2018-03-11T13:38:59.409Z,50.56
2018-03-11T13:41:25.181Z,50.64
2018-03-11T13:43:50.957Z,50.21
2018-03-11T13:46:23.078Z,50.18
2018-03-11T13:48:48.870Z,49.77
2018-03-11T13:51:21.023Z,49.41
2018-03-11T13:53:50.827Z,49.34
2018-03-11T13:56:16.604Z,49.18
2018-03-11T13:58:42.399Z,49.10
2018-03-11T14:01:08.184Z,49.08
2018-03-11T14:03:35.006Z,48.54
2018-03-11T14:06:01.689Z,48.85
2018-03-11T14:08:27.510Z,49.40
2018-03-11T14:10:53.291Z,49.38
2018-03-11T14:13:19.113Z,49.63
2018-03-11T14:15:44.886Z,49.89
2018-03-11T14:18:10.665Z,49.82
2018-03-11T14:20:37.408Z,49.70
2018-03-11T14:23:03.222Z,50.08
2018-03-11T14:25:28.998Z,50.03
2018-03-11T14:27:54.813Z,50.19
2018-03-11T14:30:20.617Z,50.31
2018-03-11T14:32:46.402Z,50.48
2018-03-11T14:35:12.178Z,50.27
2018-03-11T14:37:37.955Z,50.58
2018-03-11T14:40:03.782Z,50.44
2018-03-11T14:42:29.561Z,50.55
2018-03-11T14:44:55.335Z,50.60
2018-03-11T14:47:21.114Z,50.45
2018-03-11T14:49:46.926Z,50.23
2018-03-11T14:52:13.553Z,50.37
2018-03-11T14:54:39.330Z,50.53
2018-03-11T14:57:05.102Z,50.80
2018-03-11T14:59:30.873Z,50.73
2018-03-11T15:01:56.665Z,50.61
2018-03-11T15:04:22.537Z,50.67
2018-03-11T15:06:49.166Z,50.63
2018-03-11T15:09:14.938Z,50.69
2018-03-11T15:11:40.718Z,50.74
2018-03-11T15:14:06.494Z,50.64
2018-03-11T15:16:32.308Z,50.42
2018-03-11T15:18:58.072Z,50.49
2018-03-11T15:21:23.886Z,50.38
2018-03-11T15:23:49.675Z,50.65
2018-03-11T15:26:15.447Z,50.74
2018-03-11T15:28:41.254Z,50.76
2018-03-11T15:31:07.037Z,50.84
2018-03-11T15:33:32.853Z,50.68
2018-03-11T15:35:59.618Z,50.83
2018-03-11T15:38:25.436Z,50.80
2018-03-11T15:40:52.162Z,50.56
2018-03-11T15:43:17.936Z,50.68
2018-03-11T15:45:43.740Z,50.65
2018-03-11T15:48:09.514Z,50.63
2018-03-11T15:50:35.292Z,50.44
2018-03-11T15:53:01.070Z,50.74
2018-03-11T15:55:26.846Z,50.85
2018-03-11T15:57:52.634Z,50.94
2018-03-11T16:00:19.287Z,50.75
2018-03-11T16:02:45.062Z,51.00
2018-03-11T16:05:10.842Z,50.87
2018-03-11T16:07:36.623Z,50.96
2018-03-11T16:10:02.402Z,50.75
2018-03-11T16:12:28.169Z,50.87
2018-03-11T16:14:53.943Z,51.08
2018-03-11T16:17:19.893Z,50.85
2018-03-11T16:19:45.705Z,50.92
2018-03-11T16:22:11.486Z,50.89
2018-03-11T16:24:39.724Z,51.14
2018-03-11T16:27:03.107Z,50.97
2018-03-11T16:29:28.882Z,51.04
2018-03-11T16:31:54.697Z,50.91
2018-03-11T16:34:20.482Z,51.03
2018-03-11T16:36:47.279Z,51.11
2018-03-11T16:39:13.054Z,51.01
2018-03-11T16:41:39.798Z,51.17
2018-03-11T16:44:05.580Z,51.25
2018-03-11T16:46:32.446Z,51.09
2018-03-11T16:48:58.222Z,50.95
2018-03-11T16:51:24.850Z,51.28
2018-03-11T16:53:50.632Z,51.08
2018-03-11T16:56:17.411Z,51.16
2018-03-11T16:58:44.115Z,50.91
2018-03-11T17:01:09.962Z,51.15
2018-03-11T17:03:35.746Z,51.03
2018-03-11T17:06:01.526Z,50.94
2018-03-11T17:08:28.221Z,51.12
2018-03-11T17:10:55.018Z,50.94
2018-03-11T17:13:21.735Z,50.90
2018-03-11T17:15:48.490Z,51.05
2018-03-11T17:18:15.285Z,51.09
2018-03-11T17:20:42.000Z,50.91
2018-03-11T17:23:08.785Z,51.15
2018-03-11T17:25:35.505Z,50.96
2018-03-11T17:28:01.321Z,51.21
2018-03-11T17:30:28.077Z,50.76
2018-03-11T17:32:54.912Z,50.77
2018-03-11T17:35:21.609Z,50.97
2018-03-11T17:37:47.417Z,50.54
2018-03-11T17:40:14.006Z,50.54
2018-03-11T17:42:39.785Z,50.24
2018-03-11T17:45:05.557Z,50.07
2018-03-11T17:47:31.337Z,50.04
2018-03-11T17:49:58.095Z,50.23
2018-03-11T17:52:23.898Z,49.92
2018-03-11T17:54:50.534Z,50.31
2018-03-11T17:57:16.309Z,50.29
2018-03-11T17:59:43.038Z,50.00
2018-03-11T18:02:09.880Z,50.24
2018-03-11T18:04:35.695Z,50.45
2018-03-11T18:07:01.510Z,50.62
2018-03-11T18:09:28.305Z,50.38
2018-03-11T18:11:54.073Z,50.36
2018-03-11T18:14:19.852Z,50.58
2018-03-11T18:16:45.650Z,50.86
2018-03-11T18:19:11.422Z,50.69
2018-03-11T18:21:37.861Z,50.55
2018-03-11T18:24:04.483Z,50.25
2018-03-11T18:26:31.214Z,50.16
2018-03-11T18:28:57.942Z,50.36
2018-03-11T18:31:24.673Z,50.81
2018-03-11T18:33:51.425Z,50.61
2018-03-11T18:36:18.171Z,50.67
2018-03-11T18:38:44.866Z,50.60
2018-03-11T18:41:10.691Z,50.56
2018-03-11T18:43:36.514Z,50.49
2018-03-11T18:46:02.275Z,50.49
2018-03-11T18:48:28.050Z,50.38
2018-03-11T18:50:53.826Z,50.18
2018-03-11T18:53:19.602Z,50.37
2018-03-11T18:55:45.425Z,50.59
2018-03-11T18:58:11.198Z,50.86
2018-03-11T19:00:36.975Z,50.62
2018-03-11T19:03:02.749Z,50.72
2018-03-11T19:05:28.574Z,51.00
2018-03-11T19:07:54.393Z,50.94
2018-03-11T19:10:20.170Z,50.87
2018-03-11T19:12:45.976Z,50.89
2018-03-11T19:15:11.757Z,50.80
2018-03-11T19:17:37.533Z,50.68
2018-03-11T19:20:03.318Z,50.56
2018-03-11T19:22:29.145Z,50.84
2018-03-11T19:24:54.919Z,50.72
2018-03-11T19:27:20.695Z,50.84
2018-03-11T19:29:46.509Z,50.75
2018-03-11T19:32:12.297Z,50.96
2018-03-11T19:34:38.118Z,51.02
2018-03-11T19:37:03.914Z,51.13
2018-03-11T19:39:30.618Z,50.98
2018-03-11T19:41:56.401Z,51.16
2018-03-11T19:44:22.173Z,50.95
2018-03-11T19:46:47.954Z,50.87
2018-03-11T19:49:13.731Z,51.04
2018-03-11T19:51:39.550Z,50.94
2018-03-11T19:54:05.473Z,50.87
2018-03-11T19:56:31.261Z,50.94
2018-03-11T19:58:57.038Z,50.99
2018-03-11T20:01:22.813Z,50.90
2018-03-11T20:03:48.591Z,50.99
2018-03-11T20:06:14.512Z,50.88
2018-03-11T20:08:40.692Z,51.10
2018-03-11T20:11:06.517Z,50.93
2018-03-11T20:13:32.296Z,50.85
2018-03-11T20:15:58.938Z,50.81
2018-03-11T20:18:24.717Z,50.95
2018-03-11T20:20:50.592Z,50.89
2018-03-11T20:23:16.369Z,51.05
2018-03-11T20:25:42.178Z,50.90
2018-03-11T20:28:07.954Z,50.88
2018-03-11T20:30:35.004Z,50.85
2018-03-11T20:33:00.797Z,51.06
2018-03-11T20:35:26.849Z,51.28
2018-03-11T20:37:52.640Z,51.25
2018-03-11T20:40:18.414Z,51.32
2018-03-11T20:42:45.221Z,50.99
2018-03-11T20:45:11.002Z,51.03
2018-03-11T20:47:36.830Z,51.02
2018-03-11T20:50:02.602Z,50.93
2018-03-11T20:52:28.386Z,51.12
2018-03-11T20:54:54.250Z,50.78
2018-03-11T20:57:20.050Z,50.46
2018-03-11T20:59:45.829Z,50.68
2018-03-11T21:02:11.604Z,50.72
2018-03-11T21:04:37.417Z,50.99
2018-03-11T21:07:03.230Z,50.81
2018-03-11T21:09:29.895Z,50.37
2018-03-11T21:11:56.684Z,50.36
2018-03-11T21:14:22.498Z,50.06
2018-03-11T21:16:48.274Z,50.36
2018-03-11T21:19:15.072Z,50.27
2018-03-11T21:21:40.913Z,49.76
2018-03-11T21:24:06.690Z,50.01
2018-03-11T21:26:32.859Z,49.84
2018-03-11T21:28:58.689Z,49.92
2018-03-11T21:31:24.614Z,49.47
2018-03-11T21:33:50.386Z,49.86
2018-03-11T21:36:17.182Z,49.79
2018-03-11T21:38:43.810Z,49.52
2018-03-11T21:41:09.586Z,50.12
2018-03-11T21:43:35.362Z,50.01
2018-03-11T21:46:02.174Z,50.33
2018-03-11T21:48:27.954Z,50.17
2018-03-11T21:50:54.749Z,50.07
2018-03-11T21:53:21.498Z,49.83
2018-03-11T21:55:48.237Z,50.60
2018-03-11T21:58:14.045Z,49.82
2018-03-11T22:00:39.821Z,49.77
2018-03-11T22:03:05.605Z,49.86
2018-03-11T22:05:32.229Z,50.19
2018-03-11T22:07:58.001Z,50.17
2018-03-11T22:10:24.617Z,50.02
2018-03-11T22:12:50.393Z,50.14
2018-03-11T22:15:16.187Z,49.89
2018-03-11T22:17:43.058Z,49.67
2018-03-11T22:20:08.878Z,50.29
2018-03-11T22:22:34.711Z,49.83
2018-03-11T22:25:01.407Z,49.55
2018-03-11T22:27:28.242Z,50.09
2018-03-11T22:29:54.802Z,49.53
2018-03-11T22:32:20.586Z,49.54
2018-03-11T22:34:46.365Z,49.73
2018-03-11T22:37:12.138Z,49.51
2018-03-11T22:39:37.914Z,49.58
2018-03-11T22:42:03.701Z,49.39
2018-03-11T22:44:29.478Z,49.47
2018-03-11T22:46:55.245Z,49.58
2018-03-11T22:49:21.978Z,49.81
2018-03-11T22:51:47.757Z,50.14
2018-03-11T22:54:13.579Z,49.68
2018-03-11T22:56:39.356Z,49.87
2018-03-11T22:59:05.129Z,50.15
2018-03-11T23:01:31.818Z,49.87
2018-03-11T23:03:57.637Z,49.76
2018-03-11T23:06:23.422Z,49.36
2018-03-11T23:08:49.193Z,49.23
2018-03-11T23:11:14.966Z,49.25
2018-03-11T23:13:40.747Z,49.47
2018-03-11T23:16:06.526Z,49.27
2018-03-11T23:18:38.569Z,49.39
2018-03-11T23:21:04.385Z,49.13
2018-03-11T23:23:30.163Z,49.38
2018-03-11T23:25:55.981Z,49.41
2018-03-11T23:28:21.756Z,49.14
2018-03-11T23:30:47.537Z,49.17
2018-03-11T23:33:13.314Z,49.01
2018-03-11T23:35:39.090Z,48.87
2018-03-11T23:38:04.869Z,49.33
2018-03-11T23:40:30.644Z,49.30
2018-03-11T23:42:56.453Z,49.29
2018-03-11T23:45:22.225Z,49.22
2018-03-11T23:47:48.042Z,49.54
2018-03-11T23:50:13.818Z,49.60
2018-03-11T23:52:40.550Z,49.33
2018-03-11T23:55:06.325Z,49.27
2018-03-11T23:57:32.145Z,49.09
2018-03-11T23:59:57.923Z,49.20
